sensor_id;sensor_type;location;lat;lon;timestamp;temperature;humidity
18268;DHT22;9260;49.998;19.880;2022-12-15T00:09:57;-3.60;99.90
18268;DHT22;9260;49.998;19.880;2022-12-15T00:20:20;-3.70;99.90
18268;DHT22;9260;49.998;19.880;2022-12-15T00:30:41;-3.60;99.90
18268;DHT22;9260;49.998;19.880;2022-12-15T00:41:05;-3.60;99.90
18268;DHT22;9260;49.998;19.880;2022-12-15T00:51:09;-3.60;99.90
18268;DHT22;9260;49.998;19.880;2022-12-15T01:01:14;-3.60;99.90
18268;DHT22;9260;49.998;19.880;2022-12-15T01:11:36;-3.60;99.90
18268;DHT22;9260;49.998;19.880;2022-12-15T01:21:59;-3.60;99.90
18268;DHT22;9260;49.998;19.880;2022-12-15T01:32:03;-3.60;99.90
18268;DHT22;9260;49.998;19.880;2022-12-15T01:42:09;-3.60;99.90
18268;DHT22;9260;49.998;19.880;2022-12-15T01:52:15;-3.70;99.90
18268;DHT22;9260;49.998;19.880;2022-12-15T02:02:23;-3.60;99.90
18268;DHT22;9260;49.998;19.880;2022-12-15T02:12:35;-3.60;99.90
18268;DHT22;9260;49.998;19.880;2022-12-15T02:23:07;-3.70;99.90
18268;DHT22;9260;49.998;19.880;2022-12-15T02:33:35;-3.70;99.90
18268;DHT22;9260;49.998;19.880;2022-12-15T02:43:41;-3.70;99.90
18268;DHT22;9260;49.998;19.880;2022-12-15T02:54:17;-3.70;99.90
18268;DHT22;9260;49.998;19.880;2022-12-15T03:04:27;-3.50;99.90
18268;DHT22;9260;49.998;19.880;2022-12-15T03:14:36;-3.50;99.90
18268;DHT22;9260;49.998;19.880;2022-12-15T03:24:40;-3.40;99.90
18268;DHT22;9260;49.998;19.880;2022-12-15T03:34:45;-3.40;99.90
18268;DHT22;9260;49.998;19.880;2022-12-15T03:44:49;-3.40;99.90
18268;DHT22;9260;49.998;19.880;2022-12-15T03:54:54;-3.40;99.90
18268;DHT22;9260;49.998;19.880;2022-12-15T04:04:58;-3.30;99.90
18268;DHT22;9260;49.998;19.880;2022-12-15T04:15:05;-3.30;99.90
18268;DHT22;9260;49.998;19.880;2022-12-15T04:25:11;-3.20;99.90
18268;DHT22;9260;49.998;19.880;2022-12-15T04:35:35;-3.10;99.90
18268;DHT22;9260;49.998;19.880;2022-12-15T04:45:56;-3.10;99.90
18268;DHT22;9260;49.998;19.880;2022-12-15T04:56:19;-3.00;99.90
18268;DHT22;9260;49.998;19.880;2022-12-15T05:06:40;-2.90;99.90
18268;DHT22;9260;49.998;19.880;2022-12-15T05:17:03;-2.90;99.90
18268;DHT22;9260;49.998;19.880;2022-12-15T05:27:24;-2.90;99.90
18268;DHT22;9260;49.998;19.880;2022-12-15T05:37:46;-2.80;99.90
18268;DHT22;9260;49.998;19.880;2022-12-15T05:47:51;-2.70;99.90
18268;DHT22;9260;49.998;19.880;2022-12-15T05:57:56;-2.60;99.90
18268;DHT22;9260;49.998;19.880;2022-12-15T06:08:02;-2.60;99.90
18268;DHT22;9260;49.998;19.880;2022-12-15T06:18:07;-2.60;99.90
18268;DHT22;9260;49.998;19.880;2022-12-15T06:28:11;-2.60;99.90
18268;DHT22;9260;49.998;19.880;2022-12-15T06:38:16;-2.50;99.90
18268;DHT22;9260;49.998;19.880;2022-12-15T06:48:22;-2.50;99.90
18268;DHT22;9260;49.998;19.880;2022-12-15T06:58:27;-2.50;99.90
18268;DHT22;9260;49.998;19.880;2022-12-15T07:08:32;-2.40;99.90
18268;DHT22;9260;49.998;19.880;2022-12-15T07:18:44;-2.30;99.90
18268;DHT22;9260;49.998;19.880;2022-12-15T07:28:48;-2.20;99.90
18268;DHT22;9260;49.998;19.880;2022-12-15T07:38:56;-2.00;99.90
18268;DHT22;9260;49.998;19.880;2022-12-15T07:49:02;-1.90;99.90
18268;DHT22;9260;49.998;19.880;2022-12-15T07:59:07;-1.80;99.90
18268;DHT22;9260;49.998;19.880;2022-12-15T08:09:11;-1.70;99.90
18268;DHT22;9260;49.998;19.880;2022-12-15T08:19:17;-1.50;99.90
18268;DHT22;9260;49.998;19.880;2022-12-15T08:29:21;-1.50;99.90
18268;DHT22;9260;49.998;19.880;2022-12-15T08:39:46;-1.50;99.90
18268;DHT22;9260;49.998;19.880;2022-12-15T08:49:50;-1.50;99.90
18268;DHT22;9260;49.998;19.880;2022-12-15T08:59:56;-1.40;99.90
18268;DHT22;9260;49.998;19.880;2022-12-15T09:10:01;-1.40;99.90
18268;DHT22;9260;49.998;19.880;2022-12-15T09:20:07;-1.60;99.90
18268;DHT22;9260;49.998;19.880;2022-12-15T09:30:17;-1.40;99.90
18268;DHT22;9260;49.998;19.880;2022-12-15T09:40:23;-1.30;99.90
18268;DHT22;9260;49.998;19.880;2022-12-15T09:50:33;-1.20;99.90
18268;DHT22;9260;49.998;19.880;2022-12-15T10:00:41;-1.20;99.90
18268;DHT22;9260;49.998;19.880;2022-12-15T10:10:56;-1.20;99.90
18268;DHT22;9260;49.998;19.880;2022-12-15T10:21:02;-1.00;99.90
18268;DHT22;9260;49.998;19.880;2022-12-15T10:31:15;-0.70;99.90
18268;DHT22;9260;49.998;19.880;2022-12-15T10:41:23;-0.80;99.90
18268;DHT22;9260;49.998;19.880;2022-12-15T10:51:29;-0.90;99.90
18268;DHT22;9260;49.998;19.880;2022-12-15T11:01:34;-0.80;99.90
18268;DHT22;9260;49.998;19.880;2022-12-15T11:11:45;-0.70;99.90
18268;DHT22;9260;49.998;19.880;2022-12-15T11:22:19;-0.70;99.90
18268;DHT22;9260;49.998;19.880;2022-12-15T11:32:28;-0.60;99.90
18268;DHT22;9260;49.998;19.880;2022-12-15T11:42:44;-0.60;99.90
18268;DHT22;9260;49.998;19.880;2022-12-15T11:53:16;-0.70;99.90
18268;DHT22;9260;49.998;19.880;2022-12-15T12:03:34;-0.50;99.90
18268;DHT22;9260;49.998;19.880;2022-12-15T12:13:52;-0.50;99.90
18268;DHT22;9260;49.998;19.880;2022-12-15T12:24:25;-0.60;99.90
18268;DHT22;9260;49.998;19.880;2022-12-15T12:34:41;-0.40;99.90
18268;DHT22;9260;49.998;19.880;2022-12-15T12:45:18;-0.70;99.90
18268;DHT22;9260;49.998;19.880;2022-12-15T12:55:36;-1.00;99.90
18268;DHT22;9260;49.998;19.880;2022-12-15T13:05:44;-0.80;99.90
18268;DHT22;9260;49.998;19.880;2022-12-15T13:16:17;-0.70;99.90
18268;DHT22;9260;49.998;19.880;2022-12-15T13:26:29;-0.60;99.90
18268;DHT22;9260;49.998;19.880;2022-12-15T13:36:59;-0.70;99.90
18268;DHT22;9260;49.998;19.880;2022-12-15T13:47:08;-0.90;99.90
18268;DHT22;9260;49.998;19.880;2022-12-15T13:57:16;-1.10;99.90
18268;DHT22;9260;49.998;19.880;2022-12-15T14:07:22;-1.30;99.90
18268;DHT22;9260;49.998;19.880;2022-12-15T14:17:25;-1.60;99.90
18268;DHT22;9260;49.998;19.880;2022-12-15T14:27:35;-1.60;99.90
18268;DHT22;9260;49.998;19.880;2022-12-15T14:37:39;-1.60;99.90
18268;DHT22;9260;49.998;19.880;2022-12-15T14:47:50;-1.70;99.90
18268;DHT22;9260;49.998;19.880;2022-12-15T14:58:25;-1.80;99.90
18268;DHT22;9260;49.998;19.880;2022-12-15T15:08:40;-1.90;99.90
18268;DHT22;9260;49.998;19.880;2022-12-15T15:18:48;-1.80;99.90
18268;DHT22;9260;49.998;19.880;2022-12-15T15:28:54;-1.90;99.90
18268;DHT22;9260;49.998;19.880;2022-12-15T15:39:00;-2.00;1.00
18268;DHT22;9260;49.998;19.880;2022-12-15T15:49:18;-1.70;1.00
18268;DHT22;9260;49.998;19.880;2022-12-15T15:59:28;-1.90;1.00
18268;DHT22;9260;49.998;19.880;2022-12-15T16:09:33;-2.10;1.00
18268;DHT22;9260;49.998;19.880;2022-12-15T16:19:36;-2.20;99.90
18268;DHT22;9260;49.998;19.880;2022-12-15T16:29:42;-2.10;1.00
18268;DHT22;9260;49.998;19.880;2022-12-15T16:39:45;-2.20;99.90
18268;DHT22;9260;49.998;19.880;2022-12-15T16:49:50;-2.10;99.90
18268;DHT22;9260;49.998;19.880;2022-12-15T16:59:53;-1.90;1.00
18268;DHT22;9260;49.998;19.880;2022-12-15T17:09:58;-2.00;99.90
18268;DHT22;9260;49.998;19.880;2022-12-15T17:20:01;-1.80;1.00
18268;DHT22;9260;49.998;19.880;2022-12-15T17:30:26;-2.00;99.90
18268;DHT22;9260;49.998;19.880;2022-12-15T17:40:30;-2.00;99.90
18268;DHT22;9260;49.998;19.880;2022-12-15T17:50:35;-2.00;99.90
18268;DHT22;9260;49.998;19.880;2022-12-15T18:00:39;-2.00;99.90
18268;DHT22;9260;49.998;19.880;2022-12-15T18:10:53;-2.00;99.90
18268;DHT22;9260;49.998;19.880;2022-12-15T18:21:01;-1.90;1.00
18268;DHT22;9260;49.998;19.880;2022-12-15T18:31:18;-2.10;99.90
18268;DHT22;9260;49.998;19.880;2022-12-15T18:41:23;-1.70;99.90
18268;DHT22;9260;49.998;19.880;2022-12-15T18:51:28;-2.10;99.90
18268;DHT22;9260;49.998;19.880;2022-12-15T19:01:31;-2.10;99.90
18268;DHT22;9260;49.998;19.880;2022-12-15T19:11:36;-2.10;99.90
18268;DHT22;9260;49.998;19.880;2022-12-15T19:21:42;-2.10;51.50
18268;DHT22;9260;49.998;19.880;2022-12-15T19:32:06;-2.20;99.90
18268;DHT22;9260;49.998;19.880;2022-12-15T19:42:16;-2.20;99.90
18268;DHT22;9260;49.998;19.880;2022-12-15T19:52:23;-2.30;99.90
18268;DHT22;9260;49.998;19.880;2022-12-15T20:02:26;-2.30;99.90
18268;DHT22;9260;49.998;19.880;2022-12-15T20:12:31;-2.40;99.90
18268;DHT22;9260;49.998;19.880;2022-12-15T20:22:34;-2.40;99.90
18268;DHT22;9260;49.998;19.880;2022-12-15T20:32:39;-2.50;99.90
18268;DHT22;9260;49.998;19.880;2022-12-15T20:42:43;-2.50;99.90
18268;DHT22;9260;49.998;19.880;2022-12-15T20:52:48;-2.50;99.90
18268;DHT22;9260;49.998;19.880;2022-12-15T21:02:52;-2.60;99.90
18268;DHT22;9260;49.998;19.880;2022-12-15T21:12:57;-2.60;99.90
18268;DHT22;9260;49.998;19.880;2022-12-15T21:23:01;-2.70;99.90
18268;DHT22;9260;49.998;19.880;2022-12-15T21:33:06;-2.80;99.90
18268;DHT22;9260;49.998;19.880;2022-12-15T21:43:10;-2.70;99.90
18268;DHT22;9260;49.998;19.880;2022-12-15T21:53:14;-2.80;99.90
18268;DHT22;9260;49.998;19.880;2022-12-15T22:03:18;-2.80;99.90
18268;DHT22;9260;49.998;19.880;2022-12-15T22:13:23;-2.90;99.90
18268;DHT22;9260;49.998;19.880;2022-12-15T22:23:27;-2.90;99.90
18268;DHT22;9260;49.998;19.880;2022-12-15T22:33:31;-3.00;99.90
18268;DHT22;9260;49.998;19.880;2022-12-15T22:43:36;-3.00;99.90
18268;DHT22;9260;49.998;19.880;2022-12-15T22:53:45;-3.00;99.90
18268;DHT22;9260;49.998;19.880;2022-12-15T23:03:49;-3.00;99.90
18268;DHT22;9260;49.998;19.880;2022-12-15T23:13:55;-3.10;99.90
18268;DHT22;9260;49.998;19.880;2022-12-15T23:23:58;-3.10;99.90
18268;DHT22;9260;49.998;19.880;2022-12-15T23:34:04;-3.20;99.90
18268;DHT22;9260;49.998;19.880;2022-12-15T23:44:07;-3.20;99.90
18268;DHT22;9260;49.998;19.880;2022-12-15T23:54:12;-3.30;99.90
